createdAt,value
2022-10-13T00:00:59.891Z,21.55
2022-10-13T00:03:27.191Z,22.48
2022-10-13T00:05:54.266Z,23.67
2022-10-13T00:08:24.339Z,24.50
2022-10-13T00:10:51.698Z,22.75
2022-10-13T00:13:19.178Z,29.60
2022-10-13T00:15:47.455Z,28.38
2022-10-13T00:18:14.566Z,28.40
2022-10-13T00:20:49.735Z,26.85
2022-10-13T00:23:17.335Z,29.17
2022-10-13T00:25:45.406Z,32.60
2022-10-13T00:28:12.935Z,30.63
2022-10-13T00:30:40.408Z,26.60
2022-10-13T00:33:07.681Z,28.83
2022-10-13T00:35:34.954Z,32.80
2022-10-13T00:38:02.077Z,29.83
2022-10-13T00:40:29.153Z,25.42
2022-10-13T00:42:56.309Z,27.02
2022-10-13T00:45:27.457Z,27.33
2022-10-13T00:47:57.290Z,23.80
2022-10-13T00:50:26.329Z,24.45
2022-10-13T00:52:53.852Z,22.20
2022-10-13T00:55:24.126Z,26.02
2022-10-13T00:57:54.991Z,25.37
2022-10-13T01:00:24.350Z,27.10
2022-10-13T01:02:51.832Z,31.60
2022-10-13T01:05:19.729Z,29.67
2022-10-13T01:07:49.032Z,29.40
2022-10-13T01:10:24.728Z,31.83
2022-10-13T01:12:51.759Z,28.90
2022-10-13T01:15:18.768Z,34.72
2022-10-13T01:17:45.883Z,32.63
2022-10-13T01:20:32.889Z,27.37
2022-10-13T01:23:07.348Z,30.52
2022-10-13T01:25:38.596Z,30.43
2022-10-13T01:28:05.634Z,30.03
2022-10-13T01:30:37.084Z,24.63
2022-10-13T01:33:06.513Z,28.98
2022-10-13T01:35:53.494Z,29.08
2022-10-13T01:38:40.245Z,27.77
2022-10-13T01:41:14.621Z,29.13
2022-10-13T01:43:45.443Z,28.80
2022-10-13T01:46:17.052Z,24.63
2022-10-13T01:48:46.179Z,27.65
2022-10-13T01:51:15.071Z,25.25
2022-10-13T01:53:43.291Z,26.42
2022-10-13T01:56:10.405Z,25.05
2022-10-13T01:58:38.267Z,24.65
2022-10-13T02:01:06.439Z,25.53
2022-10-13T02:03:42.023Z,21.87
2022-10-13T02:06:09.108Z,24.27
2022-10-13T02:08:56.134Z,22.27
2022-10-13T02:11:23.555Z,23.45
2022-10-13T02:13:54.611Z,21.95
2022-10-13T02:16:23.566Z,21.17
2022-10-13T02:18:51.243Z,20.37
2022-10-13T02:21:18.766Z,20.95
2022-10-13T02:23:45.980Z,20.08
2022-10-13T02:26:13.671Z,20.98
2022-10-13T02:28:41.374Z,21.13
2022-10-13T02:31:08.912Z,21.90
2022-10-13T02:33:36.018Z,21.92
2022-10-13T02:36:03.053Z,20.47
2022-10-13T02:38:30.874Z,17.90
2022-10-13T02:40:58.298Z,17.50
2022-10-13T02:43:25.470Z,19.65
2022-10-13T02:45:52.574Z,20.52
2022-10-13T02:48:19.699Z,21.50
2022-10-13T02:50:47.581Z,21.15
2022-10-13T02:53:14.609Z,23.55
2022-10-13T02:55:41.947Z,22.88
2022-10-13T02:58:09.009Z,22.17
2022-10-13T03:00:36.183Z,25.88
2022-10-13T03:03:03.351Z,22.98
2022-10-13T03:05:30.439Z,26.30
2022-10-13T03:07:57.574Z,23.83
2022-10-13T03:10:24.677Z,25.30
2022-10-13T03:12:51.738Z,24.25
2022-10-13T03:15:18.840Z,23.95
2022-10-13T03:17:45.875Z,23.85
2022-10-13T03:20:13.028Z,23.23
2022-10-13T03:22:40.061Z,22.63
2022-10-13T03:25:07.442Z,20.75
2022-10-13T03:27:34.858Z,20.98
2022-10-13T03:30:01.967Z,22.02
2022-10-13T03:32:31.554Z,20.23
2022-10-13T03:34:58.653Z,19.83
2022-10-13T03:37:25.737Z,22.17
2022-10-13T03:39:52.803Z,23.50
2022-10-13T03:42:20.313Z,22.97
2022-10-13T03:44:52.336Z,21.58
2022-10-13T03:47:22.387Z,22.73
2022-10-13T03:49:49.671Z,23.85
2022-10-13T03:52:16.865Z,24.07
2022-10-13T03:54:44.191Z,23.27
2022-10-13T03:57:11.763Z,21.63
2022-10-13T03:59:40.731Z,22.83
2022-10-13T04:02:08.248Z,23.73
2022-10-13T04:04:35.574Z,23.08
2022-10-13T04:07:02.618Z,23.10
2022-10-13T04:09:29.783Z,22.80
2022-10-13T04:11:56.826Z,23.10
2022-10-13T04:14:23.878Z,23.83
2022-10-13T04:16:50.939Z,23.70
2022-10-13T04:19:18.047Z,21.00
2022-10-13T04:21:45.265Z,23.25
2022-10-13T04:24:13.096Z,22.95
2022-10-13T04:26:40.653Z,20.92
2022-10-13T04:29:09.109Z,20.95
2022-10-13T04:31:36.995Z,20.40
2022-10-13T04:34:04.030Z,20.40
2022-10-13T04:36:31.113Z,19.77
2022-10-13T04:38:58.255Z,22.42
2022-10-13T04:41:25.990Z,20.45
2022-10-13T04:43:53.738Z,20.83
2022-10-13T04:46:23.278Z,19.42
2022-10-13T04:48:50.632Z,19.60
2022-10-13T04:51:19.185Z,21.73
2022-10-13T04:53:46.422Z,23.75
2022-10-13T04:56:15.157Z,20.92
2022-10-13T04:58:43.186Z,21.95
2022-10-13T05:01:16.468Z,18.88
2022-10-13T05:03:47.581Z,21.00
2022-10-13T05:06:15.881Z,21.08
2022-10-13T05:08:43.062Z,18.92
2022-10-13T05:11:10.162Z,21.50
2022-10-13T05:13:37.409Z,19.58
2022-10-13T05:16:08.608Z,22.02
2022-10-13T05:18:36.050Z,21.92
2022-10-13T05:21:11.256Z,19.38
2022-10-13T05:23:39.045Z,22.98
2022-10-13T05:26:07.409Z,25.13
2022-10-13T05:28:34.429Z,20.67
2022-10-13T05:31:09.973Z,20.13
2022-10-13T05:33:37.477Z,18.13
2022-10-13T05:36:05.638Z,18.35
2022-10-13T05:38:32.721Z,17.88
2022-10-13T05:41:03.836Z,19.67
2022-10-13T05:43:31.869Z,18.35
2022-10-13T05:45:59.341Z,18.35
2022-10-13T05:48:26.400Z,19.20
2022-10-13T05:50:53.794Z,19.13
2022-10-13T05:53:21.204Z,19.48
2022-10-13T05:55:50.627Z,21.07
2022-10-13T05:58:18.298Z,20.30
2022-10-13T06:00:45.664Z,19.65
2022-10-13T06:03:15.637Z,19.58
2022-10-13T06:05:45.119Z,21.83
2022-10-13T06:08:12.180Z,23.65
2022-10-13T06:10:39.799Z,22.33
2022-10-13T06:13:06.853Z,20.30
2022-10-13T06:15:33.924Z,21.45
2022-10-13T06:18:01.144Z,21.73
2022-10-13T06:20:28.484Z,20.98
2022-10-13T06:22:56.055Z,22.55
2022-10-13T06:25:23.456Z,21.00
2022-10-13T06:27:50.732Z,22.52
2022-10-13T06:30:17.848Z,23.38
2022-10-13T06:32:44.864Z,24.20
2022-10-13T06:35:11.996Z,24.97
2022-10-13T06:37:39.189Z,23.73
2022-10-13T06:40:06.644Z,22.98
2022-10-13T06:42:34.766Z,24.27
2022-10-13T06:45:02.011Z,24.60
2022-10-13T06:47:29.120Z,25.13
2022-10-13T06:49:56.200Z,24.60
2022-10-13T06:52:23.331Z,22.92
2022-10-13T06:54:50.396Z,23.08
2022-10-13T06:57:17.451Z,24.77
2022-10-13T06:59:44.508Z,25.45
2022-10-13T07:02:11.958Z,23.67
2022-10-13T07:04:39.052Z,23.48
2022-10-13T07:07:06.147Z,23.00
2022-10-13T07:09:33.218Z,23.75
2022-10-13T07:12:00.336Z,23.45
2022-10-13T07:14:27.424Z,21.77
2022-10-13T07:16:54.410Z,22.52
2022-10-13T07:19:21.527Z,21.33
2022-10-13T07:21:48.580Z,20.08
2022-10-13T07:24:15.692Z,20.92
2022-10-13T07:26:42.744Z,21.75
2022-10-13T07:29:10.093Z,20.13
2022-10-13T07:31:37.172Z,19.57
2022-10-13T07:34:04.989Z,19.02
2022-10-13T07:36:33.062Z,19.08
2022-10-13T07:39:01.284Z,19.50
2022-10-13T07:41:28.367Z,18.85
2022-10-13T07:43:57.280Z,18.08
2022-10-13T07:46:25.363Z,20.10
2022-10-13T07:48:53.774Z,20.80
2022-10-13T07:51:21.575Z,21.60
2022-10-13T07:53:48.782Z,19.90
2022-10-13T07:56:16.486Z,20.23
2022-10-13T07:58:45.286Z,21.17
2022-10-13T08:01:12.798Z,20.65
2022-10-13T08:03:41.971Z,20.08
2022-10-13T08:06:11.714Z,21.15
2022-10-13T08:08:40.165Z,20.90
2022-10-13T08:11:10.026Z,22.10
2022-10-13T08:13:38.483Z,19.83
2022-10-13T08:16:05.698Z,20.50
2022-10-13T08:18:32.818Z,20.30
2022-10-13T08:23:49.770Z,20.75
2022-10-13T08:26:21.566Z,20.15
2022-10-13T08:29:09.606Z,21.07
2022-10-13T08:31:36.212Z,20.67
2022-10-13T08:34:03.449Z,21.03
2022-10-13T08:36:30.840Z,21.42
2022-10-13T08:38:57.897Z,21.05
2022-10-13T08:41:26.243Z,21.20
2022-10-13T08:44:33.652Z,21.52
2022-10-13T08:46:47.705Z,19.52
2022-10-13T08:49:16.506Z,22.88
2022-10-13T08:51:43.961Z,23.55
2022-10-13T08:54:15.236Z,24.40
2022-10-13T08:56:43.389Z,21.17
2022-10-13T08:59:13.977Z,21.45
2022-10-13T09:01:42.054Z,23.97
2022-10-13T09:04:16.630Z,23.67
2022-10-13T09:06:46.074Z,21.57
2022-10-13T09:09:15.554Z,21.45
2022-10-13T09:11:44.486Z,21.17
2022-10-13T09:14:13.820Z,21.00
2022-10-13T09:16:42.136Z,22.02
2022-10-13T09:19:13.541Z,21.08
2022-10-13T09:21:40.658Z,19.83
2022-10-13T09:24:08.783Z,20.02
2022-10-13T09:26:39.918Z,21.13
2022-10-13T09:29:08.905Z,21.73
2022-10-13T09:31:37.446Z,22.50
2022-10-13T09:34:20.112Z,18.93
2022-10-13T09:37:03.817Z,19.13
2022-10-13T09:39:31.729Z,18.88
2022-10-13T09:42:19.005Z,18.40
2022-10-13T09:44:46.812Z,17.00
2022-10-13T09:47:21.998Z,18.55
2022-10-13T09:50:04.684Z,18.08
2022-10-13T09:52:34.653Z,19.35
2022-10-13T09:55:01.813Z,19.30
2022-10-13T09:57:46.321Z,20.50
2022-10-13T10:00:17.708Z,18.60
2022-10-13T10:02:49.397Z,18.30
2022-10-13T10:05:19.775Z,19.48
2022-10-13T10:07:47.049Z,18.80
2022-10-13T10:10:22.308Z,19.10
2022-10-13T10:12:50.160Z,20.63
2022-10-13T10:15:21.167Z,18.65
2022-10-13T10:17:52.784Z,21.90
2022-10-13T10:20:33.487Z,21.35
2022-10-13T10:23:08.847Z,19.65
2022-10-13T10:25:36.887Z,20.38
2022-10-13T10:28:16.894Z,18.30
2022-10-13T10:30:47.760Z,19.55
2022-10-13T10:33:20.922Z,20.95
2022-10-13T10:35:50.354Z,22.47
2022-10-13T10:38:18.407Z,20.63
2022-10-13T10:40:52.440Z,20.75
2022-10-13T10:43:19.468Z,18.85
2022-10-13T10:45:48.208Z,19.90
2022-10-13T10:48:20.651Z,21.02
2022-10-13T10:50:47.879Z,20.02
2022-10-13T10:53:20.177Z,19.85
2022-10-13T10:55:50.355Z,18.80
2022-10-13T10:58:23.591Z,19.25
2022-10-13T11:01:10.637Z,17.27
2022-10-13T11:03:37.690Z,17.35
2022-10-13T11:06:05.973Z,18.08
2022-10-13T11:08:41.916Z,18.25
2022-10-13T11:11:33.453Z,17.85
2022-10-13T11:14:06.895Z,16.42
2022-10-13T11:16:40.816Z,15.48
2022-10-13T11:19:08.960Z,15.68
2022-10-13T11:21:56.152Z,16.70
2022-10-13T11:24:43.125Z,15.90
2022-10-13T11:27:10.638Z,18.17
2022-10-13T11:29:46.192Z,17.88
2022-10-13T11:32:34.165Z,14.45
2022-10-13T11:35:02.406Z,17.30
2022-10-13T11:37:34.972Z,16.80
2022-10-13T11:40:15.915Z,15.57
2022-10-13T11:43:05.220Z,14.00
2022-10-13T11:45:35.659Z,15.77
2022-10-13T11:48:03.781Z,15.07
2022-10-13T11:50:50.759Z,16.07
2022-10-13T11:53:18.789Z,14.52
2022-10-13T11:55:45.843Z,14.95
2022-10-13T11:58:12.871Z,16.73
2022-10-13T12:00:49.855Z,17.23
2022-10-13T12:03:26.687Z,17.37
2022-10-13T12:05:54.346Z,16.67
2022-10-13T12:08:21.829Z,17.08
2022-10-13T12:10:55.570Z,17.95
2022-10-13T12:13:24.848Z,16.17
2022-10-13T12:15:59.916Z,15.85
2022-10-13T12:18:28.655Z,15.52
2022-10-13T12:20:56.663Z,16.70
2022-10-13T12:23:24.022Z,18.75
2022-10-13T12:25:56.812Z,17.55
2022-10-13T12:28:25.857Z,17.50
2022-10-13T12:30:54.177Z,20.75
2022-10-13T12:33:27.788Z,17.23
2022-10-13T12:35:54.860Z,17.30
2022-10-13T12:38:22.953Z,15.83
2022-10-13T12:40:50.808Z,15.93
2022-10-13T12:43:19.686Z,14.97
2022-10-13T12:45:47.026Z,18.85
2022-10-13T12:48:34.054Z,15.85
2022-10-13T12:51:10.618Z,19.10
2022-10-13T12:53:39.308Z,16.90
2022-10-13T12:56:06.633Z,18.50
2022-10-13T12:58:35.293Z,15.50
2022-10-13T13:01:08.320Z,15.57
2022-10-13T13:03:37.091Z,15.23
2022-10-13T13:06:08.786Z,14.88
2022-10-13T13:08:35.850Z,15.13
2022-10-13T13:11:05.142Z,16.40
2022-10-13T13:13:32.208Z,14.45
2022-10-13T13:16:17.066Z,13.95
2022-10-13T13:18:45.105Z,16.08
2022-10-13T13:21:12.987Z,15.13
2022-10-13T13:23:40.704Z,15.52
2022-10-13T13:26:13.168Z,13.95
2022-10-13T13:28:43.246Z,14.18
2022-10-13T13:31:11.540Z,14.77
2022-10-13T13:33:38.697Z,13.87
2022-10-13T13:36:06.133Z,15.13
2022-10-13T13:38:33.286Z,14.38
2022-10-13T13:41:03.167Z,13.73
2022-10-13T13:43:31.253Z,11.90
2022-10-13T13:45:58.337Z,13.38
2022-10-13T13:48:26.650Z,12.38
2022-10-13T13:50:53.341Z,13.27
2022-10-13T13:53:20.428Z,14.10
2022-10-13T13:55:48.232Z,12.97
2022-10-13T13:58:15.364Z,12.30
2022-10-13T14:00:42.499Z,13.65
2022-10-13T14:03:09.586Z,13.75
2022-10-13T14:05:40.065Z,15.10
2022-10-13T14:08:07.238Z,13.10
2022-10-13T14:10:34.544Z,15.00
2022-10-13T14:13:02.283Z,13.52
2022-10-13T14:15:29.940Z,13.30
2022-10-13T14:17:57.228Z,16.10
2022-10-13T14:20:24.427Z,11.30
2022-10-13T14:22:51.543Z,13.00
2022-10-13T14:25:18.847Z,13.77
2022-10-13T14:27:45.852Z,18.30
2022-10-13T14:30:13.255Z,12.90
2022-10-13T14:32:39.959Z,13.32
2022-10-13T14:35:07.159Z,17.92
2022-10-13T14:37:34.532Z,14.50
2022-10-13T14:40:02.099Z,14.57
2022-10-13T14:42:29.189Z,14.95
2022-10-13T14:44:56.272Z,13.30
2022-10-13T14:47:23.550Z,12.48
2022-10-13T14:49:50.907Z,9.93
2022-10-13T14:52:17.993Z,11.50
2022-10-13T14:54:45.304Z,12.32
2022-10-13T14:57:15.925Z,11.30
2022-10-13T14:59:43.242Z,12.40
2022-10-13T15:02:11.459Z,11.13
2022-10-13T15:04:38.610Z,13.52
2022-10-13T15:07:07.046Z,12.00
2022-10-13T15:09:45.447Z,10.98
2022-10-13T15:12:21.012Z,10.77
2022-10-13T15:14:48.421Z,12.47
2022-10-13T15:17:15.466Z,13.27
2022-10-13T15:19:42.535Z,9.57
2022-10-13T15:22:09.697Z,10.70
2022-10-13T15:24:36.834Z,10.50
2022-10-13T15:27:03.902Z,11.47
2022-10-13T15:29:30.974Z,11.05
2022-10-13T15:32:08.353Z,11.30
2022-10-13T15:34:35.518Z,10.93
2022-10-13T15:37:02.627Z,12.05
2022-10-13T15:39:29.689Z,10.77
2022-10-13T15:41:56.842Z,11.30
2022-10-13T15:44:25.685Z,11.20
2022-10-13T15:47:07.410Z,12.40
2022-10-13T15:49:37.721Z,12.07
2022-10-13T15:52:04.945Z,12.00
2022-10-13T15:54:32.177Z,10.25
2022-10-13T15:56:58.851Z,11.07
2022-10-13T15:59:25.915Z,12.48
2022-10-13T16:01:53.029Z,11.30
2022-10-13T16:04:20.092Z,13.88
2022-10-13T16:06:47.169Z,10.70
2022-10-13T16:09:13.769Z,11.27
2022-10-13T16:11:40.904Z,13.80
2022-10-13T16:14:07.986Z,16.20
2022-10-13T16:16:35.045Z,10.98
2022-10-13T16:19:02.103Z,12.57
2022-10-13T16:21:29.191Z,12.30
2022-10-13T16:23:56.729Z,12.98
2022-10-13T16:26:23.949Z,11.75
2022-10-13T16:28:54.648Z,13.07
2022-10-13T16:31:21.891Z,12.32
2022-10-13T16:33:49.215Z,15.18
2022-10-13T16:36:17.616Z,16.67
2022-10-13T16:38:45.597Z,12.63
2022-10-13T16:41:14.548Z,20.10
2022-10-13T16:43:42.199Z,14.70
2022-10-13T16:46:13.165Z,11.38
2022-10-13T16:48:41.018Z,11.88
2022-10-13T16:51:09.622Z,15.15
2022-10-13T16:53:36.645Z,11.30
2022-10-13T16:56:04.748Z,12.77
2022-10-13T16:58:32.028Z,10.00
2022-10-13T17:01:03.081Z,10.18
2022-10-13T17:03:30.225Z,20.88
2022-10-13T17:05:57.360Z,23.63
2022-10-13T17:08:24.464Z,17.00
2022-10-13T17:10:57.809Z,14.35
2022-10-13T17:13:25.701Z,14.38
2022-10-13T17:15:53.416Z,13.98
2022-10-13T17:18:20.616Z,12.88
2022-10-13T17:20:51.892Z,12.97
2022-10-13T17:23:19.505Z,13.15
2022-10-13T17:25:46.831Z,13.05
2022-10-13T17:28:14.040Z,12.83
2022-10-13T17:30:41.179Z,12.20
2022-10-13T17:33:08.858Z,11.45
2022-10-13T17:35:35.951Z,11.60
2022-10-13T17:38:03.056Z,13.90
2022-10-13T17:40:30.164Z,11.95
2022-10-13T17:42:57.265Z,11.95
2022-10-13T17:45:24.817Z,12.73
2022-10-13T17:47:52.317Z,14.32
2022-10-13T17:50:19.471Z,14.15
2022-10-13T17:52:46.668Z,12.65
2022-10-13T17:55:13.936Z,13.17
2022-10-13T17:57:41.013Z,14.37
2022-10-13T18:00:08.408Z,16.42
2022-10-13T18:02:35.492Z,25.52
2022-10-13T18:05:02.592Z,18.60
2022-10-13T18:07:29.683Z,17.40
2022-10-13T18:09:56.731Z,12.60
2022-10-13T18:12:23.891Z,15.48
2022-10-13T18:14:50.537Z,18.13
2022-10-13T18:17:17.736Z,16.40
2022-10-13T18:19:44.992Z,16.63
2022-10-13T18:22:12.164Z,12.55
2022-10-13T18:24:39.447Z,14.23
2022-10-13T18:27:06.620Z,13.15
2022-10-13T18:29:33.729Z,18.05
2022-10-13T18:32:00.812Z,16.65
2022-10-13T18:34:27.883Z,15.32
2022-10-13T18:36:55.102Z,15.30
2022-10-13T18:39:22.528Z,12.13
2022-10-13T18:41:50.503Z,14.85
2022-10-13T18:44:17.555Z,14.43
2022-10-13T18:46:45.345Z,12.60
2022-10-13T18:49:13.682Z,15.13
2022-10-13T18:51:41.007Z,13.77
2022-10-13T18:54:08.476Z,15.00
2022-10-13T18:56:38.759Z,16.45
2022-10-13T18:59:06.902Z,14.05
2022-10-13T19:01:34.853Z,14.05
2022-10-13T19:04:02.240Z,14.20
2022-10-13T19:06:32.158Z,17.10
2022-10-13T19:09:01.403Z,15.93
2022-10-13T19:11:29.764Z,19.20
2022-10-13T19:13:58.258Z,16.58
2022-10-13T19:16:26.690Z,19.38
2022-10-13T19:18:53.838Z,17.52
2022-10-13T19:21:21.738Z,16.83
2022-10-13T19:23:49.410Z,13.75
2022-10-13T19:26:18.424Z,14.48
2022-10-13T19:28:45.592Z,15.15
2022-10-13T19:31:13.816Z,14.88
2022-10-13T19:33:44.749Z,17.27
2022-10-13T19:36:19.195Z,16.53
2022-10-13T19:38:46.363Z,21.88
2022-10-13T19:41:13.466Z,24.17
2022-10-13T19:43:40.510Z,22.30
2022-10-13T19:46:07.864Z,21.63
2022-10-13T19:48:35.013Z,20.92
2022-10-13T19:51:02.450Z,20.43
2022-10-13T19:53:29.634Z,15.77
2022-10-13T19:55:56.702Z,13.70
2022-10-13T19:58:23.702Z,15.68
2022-10-13T20:00:50.884Z,17.55
2022-10-13T20:03:18.082Z,14.68
2022-10-13T20:05:45.164Z,13.68
2022-10-13T20:08:12.640Z,16.83
2022-10-13T20:10:40.443Z,17.42
2022-10-13T20:13:08.099Z,16.17
2022-10-13T20:15:38.910Z,21.37
2022-10-13T20:18:07.079Z,20.08
2022-10-13T20:20:34.914Z,21.80
2022-10-13T20:23:02.077Z,18.67
2022-10-13T20:25:29.171Z,23.05
2022-10-13T20:27:56.254Z,28.17
2022-10-13T20:30:23.522Z,27.42
2022-10-13T20:32:50.667Z,28.67
2022-10-13T20:35:17.430Z,21.95
2022-10-13T20:37:44.451Z,21.50
2022-10-13T20:40:11.844Z,22.63
2022-10-13T20:42:39.182Z,22.83
2022-10-13T20:45:06.562Z,25.50
2022-10-13T20:47:33.687Z,33.58
2022-10-13T20:50:00.340Z,30.38
2022-10-13T20:52:27.087Z,26.80
2022-10-13T20:54:54.182Z,28.63
2022-10-13T20:57:21.518Z,29.20
2022-10-13T20:59:49.655Z,25.40
2022-10-13T21:02:17.060Z,24.50
2022-10-13T21:04:44.097Z,20.65
2022-10-13T21:07:11.197Z,20.77
2022-10-13T21:09:38.294Z,19.50
2022-10-13T21:12:06.069Z,20.58
2022-10-13T21:14:33.066Z,20.95
2022-10-13T21:17:00.259Z,22.33
2022-10-13T21:19:29.128Z,19.92
2022-10-13T21:21:56.212Z,22.45
2022-10-13T21:24:23.263Z,21.08
2022-10-13T21:26:50.358Z,24.70
2022-10-13T21:29:17.435Z,22.57
2022-10-13T21:31:44.479Z,22.80
2022-10-13T21:34:11.654Z,23.95
2022-10-13T21:36:42.363Z,22.83
2022-10-13T21:39:10.219Z,22.92
2022-10-13T21:41:37.255Z,23.58
2022-10-13T21:44:04.665Z,24.23
2022-10-13T21:46:32.892Z,27.05
2022-10-13T21:49:01.255Z,24.83
2022-10-13T21:51:29.999Z,23.67
2022-10-13T21:53:58.304Z,22.85
2022-10-13T21:56:26.100Z,20.52
2022-10-13T21:58:53.817Z,22.70
2022-10-13T22:01:21.446Z,21.67
2022-10-13T22:03:49.259Z,22.30
2022-10-13T22:06:19.615Z,23.20
2022-10-13T22:08:47.925Z,19.45
2022-10-13T22:11:15.324Z,19.33
2022-10-13T22:13:42.029Z,20.38
2022-10-13T22:16:10.666Z,19.77
2022-10-13T22:18:37.731Z,21.60
2022-10-13T22:21:06.195Z,21.20
2022-10-13T22:23:33.104Z,19.17
2022-10-13T22:26:00.210Z,20.95
2022-10-13T22:28:27.290Z,21.08
2022-10-13T22:30:54.449Z,20.73
2022-10-13T22:33:21.567Z,20.63
2022-10-13T22:35:48.623Z,18.13
2022-10-13T22:38:15.892Z,22.08
2022-10-13T22:40:43.003Z,20.60
2022-10-13T22:43:10.058Z,19.00
2022-10-13T22:45:37.147Z,17.90
2022-10-13T22:48:04.247Z,19.92
2022-10-13T22:50:31.313Z,17.90
2022-10-13T22:52:58.389Z,18.17
2022-10-13T22:55:25.454Z,18.13
2022-10-13T22:57:52.502Z,19.65
2022-10-13T23:00:19.611Z,17.42
2022-10-13T23:02:46.686Z,19.27
2022-10-13T23:05:14.074Z,17.83
2022-10-13T23:07:41.125Z,20.40
2022-10-13T23:10:08.450Z,19.17
2022-10-13T23:12:35.147Z,19.70
2022-10-13T23:15:01.794Z,18.90
2022-10-13T23:17:28.877Z,22.38
2022-10-13T23:19:56.017Z,18.20
2022-10-13T23:22:23.099Z,20.08
2022-10-13T23:24:50.147Z,18.75
2022-10-13T23:27:17.255Z,17.67
2022-10-13T23:29:44.217Z,21.38
2022-10-13T23:32:11.286Z,20.98
2022-10-13T23:34:38.366Z,17.43
2022-10-13T23:37:05.574Z,18.30
2022-10-13T23:39:32.670Z,18.95
2022-10-13T23:41:59.790Z,18.58
2022-10-13T23:44:26.865Z,17.85
2022-10-13T23:46:54.035Z,17.33
2022-10-13T23:49:21.126Z,19.27
2022-10-13T23:51:48.193Z,21.08
2022-10-13T23:54:15.166Z,19.20
2022-10-13T23:56:42.218Z,17.10
2022-10-13T23:59:09.330Z,17.57
